sensor_id;sensor_type;location;lat;lon;timestamp;pressure;altitude;pressure_sealevel;temperature;humidity
78064;BME280;67429;51.596;-3.264;2023-05-07T00:00:38;99284.54;;;11.65;57.16
78064;BME280;67429;51.596;-3.264;2023-05-07T00:03:04;99286.41;;;11.45;57.24
78064;BME280;67429;51.596;-3.264;2023-05-07T00:05:29;99283.10;;;11.34;57.23
78064;BME280;67429;51.596;-3.264;2023-05-07T00:07:54;99286.94;;;11.30;58.36
78064;BME280;67429;51.596;-3.264;2023-05-07T00:10:20;99287.20;;;10.70;60.28
78064;BME280;67429;51.596;-3.264;2023-05-07T00:12:45;99286.83;;;10.74;59.23
78064;BME280;67429;51.596;-3.264;2023-05-07T00:15:11;99286.20;;;10.67;59.92
78064;BME280;67429;51.596;-3.264;2023-05-07T00:17:36;99286.81;;;10.61;59.63
78064;BME280;67429;51.596;-3.264;2023-05-07T00:20:01;99288.44;;;10.25;60.02
78064;BME280;67429;51.596;-3.264;2023-05-07T00:22:26;99284.37;;;10.43;60.43
78064;BME280;67429;51.596;-3.264;2023-05-07T00:24:52;99285.55;;;11.01;58.89
78064;BME280;67429;51.596;-3.264;2023-05-07T00:27:17;99288.64;;;11.30;57.28
78064;BME280;67429;51.596;-3.264;2023-05-07T00:29:43;99284.24;;;11.06;56.25
78064;BME280;67429;51.596;-3.264;2023-05-07T00:32:08;99286.59;;;11.25;56.04
78064;BME280;67429;51.596;-3.264;2023-05-07T00:34:34;99290.30;;;11.29;56.04
78064;BME280;67429;51.596;-3.264;2023-05-07T00:37:00;99282.07;;;11.50;55.29
78064;BME280;67429;51.596;-3.264;2023-05-07T00:39:24;99288.52;;;11.44;56.29
78064;BME280;67429;51.596;-3.264;2023-05-07T00:41:50;99291.72;;;10.98;56.66
78064;BME280;67429;51.596;-3.264;2023-05-07T00:44:16;99289.72;;;11.45;55.91
78064;BME280;67429;51.596;-3.264;2023-05-07T00:46:41;99291.78;;;11.59;55.71
78064;BME280;67429;51.596;-3.264;2023-05-07T00:49:07;99297.90;;;11.45;55.45
78064;BME280;67429;51.596;-3.264;2023-05-07T00:51:33;99299.78;;;11.26;55.51
78064;BME280;67429;51.596;-3.264;2023-05-07T00:53:58;99301.63;;;11.28;53.63
78064;BME280;67429;51.596;-3.264;2023-05-07T00:56:24;99300.76;;;11.15;54.04
78064;BME280;67429;51.596;-3.264;2023-05-07T00:58:49;99303.18;;;10.89;56.13
78064;BME280;67429;51.596;-3.264;2023-05-07T01:01:14;99307.06;;;11.69;54.68
78064;BME280;67429;51.596;-3.264;2023-05-07T01:03:40;99313.69;;;11.10;54.91
78064;BME280;67429;51.596;-3.264;2023-05-07T01:06:06;99319.14;;;11.04;56.10
78064;BME280;67429;51.596;-3.264;2023-05-07T01:08:31;99324.44;;;10.79;56.41
78064;BME280;67429;51.596;-3.264;2023-05-07T01:10:57;99331.64;;;10.77;57.99
78064;BME280;67429;51.596;-3.264;2023-05-07T01:13:22;99331.06;;;10.29;59.37
78064;BME280;67429;51.596;-3.264;2023-05-07T01:15:48;99327.15;;;10.10;59.95
78064;BME280;67429;51.596;-3.264;2023-05-07T01:18:13;99328.59;;;10.37;59.46
78064;BME280;67429;51.596;-3.264;2023-05-07T01:20:38;99325.78;;;10.37;59.77
78064;BME280;67429;51.596;-3.264;2023-05-07T01:23:05;99322.70;;;10.44;59.49
78064;BME280;67429;51.596;-3.264;2023-05-07T01:25:30;99324.53;;;10.84;58.80
78064;BME280;67429;51.596;-3.264;2023-05-07T01:27:55;99326.71;;;10.39;58.48
78064;BME280;67429;51.596;-3.264;2023-05-07T01:30:22;99329.13;;;10.51;58.20
78064;BME280;67429;51.596;-3.264;2023-05-07T01:32:49;99334.54;;;10.91;57.74
78064;BME280;67429;51.596;-3.264;2023-05-07T01:35:13;99336.21;;;10.60;57.39
78064;BME280;67429;51.596;-3.264;2023-05-07T01:37:37;99342.01;;;10.79;55.98
78064;BME280;67429;51.596;-3.264;2023-05-07T01:40:03;99343.99;;;10.83;55.67
78064;BME280;67429;51.596;-3.264;2023-05-07T01:42:28;99341.94;;;10.77;55.52
78064;BME280;67429;51.596;-3.264;2023-05-07T01:44:53;99342.34;;;10.62;56.39
78064;BME280;67429;51.596;-3.264;2023-05-07T01:47:20;99339.86;;;10.86;55.03
78064;BME280;67429;51.596;-3.264;2023-05-07T01:49:45;99348.28;;;10.86;57.59
78064;BME280;67429;51.596;-3.264;2023-05-07T01:52:10;99348.84;;;10.90;57.32
78064;BME280;67429;51.596;-3.264;2023-05-07T01:54:36;99351.72;;;10.52;58.10
78064;BME280;67429;51.596;-3.264;2023-05-07T01:57:02;99351.31;;;10.04;59.71
78064;BME280;67429;51.596;-3.264;2023-05-07T01:59:27;99354.79;;;10.15;59.88
78064;BME280;67429;51.596;-3.264;2023-05-07T02:01:53;99361.31;;;9.90;59.74
78064;BME280;67429;51.596;-3.264;2023-05-07T02:04:19;99364.23;;;9.94;59.98
78064;BME280;67429;51.596;-3.264;2023-05-07T02:06:44;99363.17;;;9.73;60.97
78064;BME280;67429;51.596;-3.264;2023-05-07T02:09:10;99370.20;;;10.41;59.53
78064;BME280;67429;51.596;-3.264;2023-05-07T02:11:35;99371.44;;;10.13;58.19
78064;BME280;67429;51.596;-3.264;2023-05-07T02:14:01;99370.75;;;10.78;56.56
78064;BME280;67429;51.596;-3.264;2023-05-07T02:16:26;99368.84;;;10.49;57.43
78064;BME280;67429;51.596;-3.264;2023-05-07T02:18:52;99369.03;;;10.64;57.68
78064;BME280;67429;51.596;-3.264;2023-05-07T02:21:17;99369.22;;;10.52;57.39
78064;BME280;67429;51.596;-3.264;2023-05-07T02:23:43;99368.21;;;10.05;57.74
78064;BME280;67429;51.596;-3.264;2023-05-07T02:26:08;99373.17;;;10.36;57.85
78064;BME280;67429;51.596;-3.264;2023-05-07T02:28:34;99377.06;;;10.14;58.44
78064;BME280;67429;51.596;-3.264;2023-05-07T02:30:59;99373.60;;;9.56;60.02
78064;BME280;67429;51.596;-3.264;2023-05-07T02:33:25;99376.94;;;9.80;59.57
78064;BME280;67429;51.596;-3.264;2023-05-07T02:35:51;99379.42;;;9.65;59.68
78064;BME280;67429;51.596;-3.264;2023-05-07T02:38:16;99384.26;;;9.70;59.56
78064;BME280;67429;51.596;-3.264;2023-05-07T02:40:42;99386.55;;;9.63;59.57
78064;BME280;67429;51.596;-3.264;2023-05-07T02:43:08;99389.16;;;9.60;59.25
78064;BME280;67429;51.596;-3.264;2023-05-07T02:45:34;99392.48;;;9.65;60.75
78064;BME280;67429;51.596;-3.264;2023-05-07T02:47:59;99394.46;;;9.54;60.76
78064;BME280;67429;51.596;-3.264;2023-05-07T02:50:25;99389.27;;;8.67;61.45
78064;BME280;67429;51.596;-3.264;2023-05-07T02:52:50;99393.92;;;9.31;59.88
78064;BME280;67429;51.596;-3.264;2023-05-07T02:55:16;99394.19;;;9.31;60.44
78064;BME280;67429;51.596;-3.264;2023-05-07T02:57:41;99396.53;;;9.75;59.71
78064;BME280;67429;51.596;-3.264;2023-05-07T03:00:15;99396.60;;;10.12;56.97
78064;BME280;67429;51.596;-3.264;2023-05-07T03:02:33;99399.70;;;10.04;57.49
78064;BME280;67429;51.596;-3.264;2023-05-07T03:04:58;99400.63;;;9.54;58.27
78064;BME280;67429;51.596;-3.264;2023-05-07T03:07:23;99401.85;;;9.66;57.64
78064;BME280;67429;51.596;-3.264;2023-05-07T03:09:49;99402.24;;;9.33;59.12
78064;BME280;67429;51.596;-3.264;2023-05-07T03:12:14;99404.36;;;9.53;57.91
78064;BME280;67429;51.596;-3.264;2023-05-07T03:14:41;99402.44;;;9.61;57.48
78064;BME280;67429;51.596;-3.264;2023-05-07T03:17:06;99400.87;;;9.45;58.03
78064;BME280;67429;51.596;-3.264;2023-05-07T03:19:31;99400.79;;;9.60;58.52
78064;BME280;67429;51.596;-3.264;2023-05-07T03:21:57;99400.70;;;8.44;62.37
78064;BME280;67429;51.596;-3.264;2023-05-07T03:24:23;99399.25;;;8.42;62.72
78064;BME280;67429;51.596;-3.264;2023-05-07T03:26:48;99399.31;;;8.21;63.76
78064;BME280;67429;51.596;-3.264;2023-05-07T03:29:14;99402.70;;;8.20;63.79
78064;BME280;67429;51.596;-3.264;2023-05-07T03:31:40;99406.16;;;9.05;60.59
78064;BME280;67429;51.596;-3.264;2023-05-07T03:34:05;99403.01;;;9.31;59.60
78064;BME280;67429;51.596;-3.264;2023-05-07T03:36:31;99400.90;;;9.42;59.10
78064;BME280;67429;51.596;-3.264;2023-05-07T03:38:56;99400.45;;;9.38;58.20
78064;BME280;67429;51.596;-3.264;2023-05-07T03:41:22;99401.70;;;9.43;58.46
78064;BME280;67429;51.596;-3.264;2023-05-07T03:43:48;99402.84;;;9.21;58.58
78064;BME280;67429;51.596;-3.264;2023-05-07T03:46:13;99401.86;;;9.41;57.89
78064;BME280;67429;51.596;-3.264;2023-05-07T03:48:38;99399.89;;;9.09;58.32
78064;BME280;67429;51.596;-3.264;2023-05-07T03:51:04;99398.66;;;9.14;58.06
78064;BME280;67429;51.596;-3.264;2023-05-07T03:53:30;99397.43;;;9.72;56.45
78064;BME280;67429;51.596;-3.264;2023-05-07T03:55:55;99393.41;;;10.04;56.59
78064;BME280;67429;51.596;-3.264;2023-05-07T03:58:20;99394.47;;;9.88;56.71
78064;BME280;67429;51.596;-3.264;2023-05-07T04:00:45;99401.61;;;9.32;56.80
78064;BME280;67429;51.596;-3.264;2023-05-07T04:03:10;99398.78;;;9.33;57.98
78064;BME280;67429;51.596;-3.264;2023-05-07T04:05:36;99398.34;;;9.83;56.65
78064;BME280;67429;51.596;-3.264;2023-05-07T04:08:01;99401.10;;;9.09;57.16
78064;BME280;67429;51.596;-3.264;2023-05-07T04:10:27;99406.84;;;8.54;61.03
78064;BME280;67429;51.596;-3.264;2023-05-07T04:12:53;99407.47;;;8.46;62.11
78064;BME280;67429;51.596;-3.264;2023-05-07T04:15:18;99406.59;;;8.59;61.77
78064;BME280;67429;51.596;-3.264;2023-05-07T04:17:44;99411.07;;;8.85;59.82
78064;BME280;67429;51.596;-3.264;2023-05-07T04:20:14;99412.53;;;9.29;57.93
78064;BME280;67429;51.596;-3.264;2023-05-07T04:22:34;99417.26;;;9.11;59.14
78064;BME280;67429;51.596;-3.264;2023-05-07T04:25:00;99423.53;;;9.14;58.90
78064;BME280;67429;51.596;-3.264;2023-05-07T04:27:26;99425.25;;;8.71;61.05
78064;BME280;67429;51.596;-3.264;2023-05-07T04:29:51;99428.57;;;8.73;60.53
78064;BME280;67429;51.596;-3.264;2023-05-07T04:32:17;99434.48;;;8.83;60.00
78064;BME280;67429;51.596;-3.264;2023-05-07T04:34:43;99432.43;;;8.94;61.83
78064;BME280;67429;51.596;-3.264;2023-05-07T04:37:08;99438.79;;;8.98;61.14
78064;BME280;67429;51.596;-3.264;2023-05-07T04:39:34;99445.05;;;8.52;62.17
78064;BME280;67429;51.596;-3.264;2023-05-07T04:41:59;99448.50;;;7.38;65.07
78064;BME280;67429;51.596;-3.264;2023-05-07T04:44:25;99446.93;;;7.73;65.14
78064;BME280;67429;51.596;-3.264;2023-05-07T04:46:51;99449.96;;;8.58;63.45
78064;BME280;67429;51.596;-3.264;2023-05-07T04:49:15;99449.22;;;9.01;60.99
78064;BME280;67429;51.596;-3.264;2023-05-07T04:51:41;99453.15;;;9.18;60.29
78064;BME280;67429;51.596;-3.264;2023-05-07T04:54:06;99453.79;;;10.03;58.60
78064;BME280;67429;51.596;-3.264;2023-05-07T04:56:32;99455.05;;;9.79;58.45
78064;BME280;67429;51.596;-3.264;2023-05-07T04:58:57;99452.71;;;9.65;58.49
78064;BME280;67429;51.596;-3.264;2023-05-07T05:01:23;99449.81;;;9.90;58.89
78064;BME280;67429;51.596;-3.264;2023-05-07T05:03:48;99451.08;;;9.49;58.74
78064;BME280;67429;51.596;-3.264;2023-05-07T05:06:14;99458.83;;;9.11;61.25
78064;BME280;67429;51.596;-3.264;2023-05-07T05:08:39;99463.59;;;9.09;61.32
78064;BME280;67429;51.596;-3.264;2023-05-07T05:11:05;99465.16;;;9.22;59.30
78064;BME280;67429;51.596;-3.264;2023-05-07T05:13:31;99466.27;;;9.35;59.21
78064;BME280;67429;51.596;-3.264;2023-05-07T05:15:55;99471.38;;;9.42;59.35
78064;BME280;67429;51.596;-3.264;2023-05-07T05:18:20;99472.91;;;9.67;58.73
78064;BME280;67429;51.596;-3.264;2023-05-07T05:20:46;99471.38;;;9.66;58.71
78064;BME280;67429;51.596;-3.264;2023-05-07T05:23:11;99474.10;;;9.36;60.89
78064;BME280;67429;51.596;-3.264;2023-05-07T05:25:36;99475.49;;;9.11;61.74
78064;BME280;67429;51.596;-3.264;2023-05-07T05:28:02;99474.38;;;8.93;62.40
78064;BME280;67429;51.596;-3.264;2023-05-07T05:30:28;99471.50;;;9.22;61.77
78064;BME280;67429;51.596;-3.264;2023-05-07T05:32:53;99465.29;;;8.59;63.49
78064;BME280;67429;51.596;-3.264;2023-05-07T05:35:19;99468.49;;;8.70;62.41
78064;BME280;67429;51.596;-3.264;2023-05-07T05:37:44;99472.79;;;8.50;64.19
78064;BME280;67429;51.596;-3.264;2023-05-07T05:40:11;99471.18;;;8.77;64.43
78064;BME280;67429;51.596;-3.264;2023-05-07T05:42:35;99480.98;;;8.85;63.81
78064;BME280;67429;51.596;-3.264;2023-05-07T05:45:01;99486.11;;;8.88;64.72
78064;BME280;67429;51.596;-3.264;2023-05-07T05:47:26;99486.61;;;8.89;64.52
78064;BME280;67429;51.596;-3.264;2023-05-07T05:49:52;99490.76;;;8.68;65.73
78064;BME280;67429;51.596;-3.264;2023-05-07T05:52:18;99496.47;;;9.05;65.33
78064;BME280;67429;51.596;-3.264;2023-05-07T05:54:44;99500.82;;;9.61;64.44
78064;BME280;67429;51.596;-3.264;2023-05-07T05:57:09;99499.43;;;8.96;65.22
78064;BME280;67429;51.596;-3.264;2023-05-07T05:59:34;99502.54;;;9.44;65.20
78064;BME280;67429;51.596;-3.264;2023-05-07T06:02:00;99506.95;;;9.64;64.61
78064;BME280;67429;51.596;-3.264;2023-05-07T06:04:25;99512.15;;;9.53;63.10
78064;BME280;67429;51.596;-3.264;2023-05-07T06:06:51;99511.42;;;9.41;64.54
78064;BME280;67429;51.596;-3.264;2023-05-07T06:09:16;99506.90;;;9.03;65.22
78064;BME280;67429;51.596;-3.264;2023-05-07T06:11:41;99512.30;;;9.04;65.85
78064;BME280;67429;51.596;-3.264;2023-05-07T06:14:07;99517.43;;;9.26;64.92
78064;BME280;67429;51.596;-3.264;2023-05-07T06:16:33;99522.85;;;9.51;64.82
78064;BME280;67429;51.596;-3.264;2023-05-07T06:18:58;99525.32;;;8.96;66.17
78064;BME280;67429;51.596;-3.264;2023-05-07T06:21:24;99529.09;;;9.46;65.62
78064;BME280;67429;51.596;-3.264;2023-05-07T06:23:50;99530.15;;;9.69;64.67
78064;BME280;67429;51.596;-3.264;2023-05-07T06:26:15;99534.77;;;9.63;64.71
78064;BME280;67429;51.596;-3.264;2023-05-07T06:28:41;99542.52;;;9.58;62.40
78064;BME280;67429;51.596;-3.264;2023-05-07T06:31:12;99549.28;;;8.43;66.57
78064;BME280;67429;51.596;-3.264;2023-05-07T06:33:32;99548.47;;;9.14;66.19
78064;BME280;67429;51.596;-3.264;2023-05-07T06:35:57;99548.18;;;9.59;64.73
78064;BME280;67429;51.596;-3.264;2023-05-07T06:38:23;99543.54;;;9.00;63.98
78064;BME280;67429;51.596;-3.264;2023-05-07T06:40:49;99537.98;;;8.63;66.90
78064;BME280;67429;51.596;-3.264;2023-05-07T06:43:14;99536.32;;;8.97;66.59
78064;BME280;67429;51.596;-3.264;2023-05-07T06:45:40;99534.20;;;9.44;65.37
78064;BME280;67429;51.596;-3.264;2023-05-07T06:48:05;99539.21;;;9.61;64.10
78064;BME280;67429;51.596;-3.264;2023-05-07T06:50:30;99537.37;;;9.95;62.93
78064;BME280;67429;51.596;-3.264;2023-05-07T06:52:56;99539.13;;;10.14;63.17
78064;BME280;67429;51.596;-3.264;2023-05-07T06:55:21;99538.74;;;10.70;62.42
78064;BME280;67429;51.596;-3.264;2023-05-07T06:57:47;99540.06;;;10.50;62.38
78064;BME280;67429;51.596;-3.264;2023-05-07T07:00:14;99539.24;;;10.31;62.32
78064;BME280;67429;51.596;-3.264;2023-05-07T07:02:38;99538.51;;;10.23;62.37
78064;BME280;67429;51.596;-3.264;2023-05-07T07:05:04;99542.85;;;10.64;62.51
78064;BME280;67429;51.596;-3.264;2023-05-07T07:07:29;99548.54;;;11.83;59.65
78064;BME280;67429;51.596;-3.264;2023-05-07T07:09:54;99548.75;;;10.70;60.63
78064;BME280;67429;51.596;-3.264;2023-05-07T07:12:20;99554.26;;;10.89;60.18
78064;BME280;67429;51.596;-3.264;2023-05-07T07:14:45;99560.64;;;11.05;59.95
78064;BME280;67429;51.596;-3.264;2023-05-07T07:17:11;99565.26;;;11.64;59.03
78064;BME280;67429;51.596;-3.264;2023-05-07T07:19:37;99568.47;;;10.77;60.14
78064;BME280;67429;51.596;-3.264;2023-05-07T07:22:02;99576.23;;;10.52;62.32
78064;BME280;67429;51.596;-3.264;2023-05-07T07:24:28;99585.98;;;11.34;59.55
78064;BME280;67429;51.596;-3.264;2023-05-07T07:26:53;99587.22;;;10.69;61.32
78064;BME280;67429;51.596;-3.264;2023-05-07T07:29:19;99594.01;;;10.10;62.16
78064;BME280;67429;51.596;-3.264;2023-05-07T07:31:44;99592.15;;;9.99;61.56
78064;BME280;67429;51.596;-3.264;2023-05-07T07:34:10;99589.40;;;10.09;62.63
78064;BME280;67429;51.596;-3.264;2023-05-07T07:36:35;99584.11;;;10.48;62.78
78064;BME280;67429;51.596;-3.264;2023-05-07T07:39:01;99591.21;;;10.39;62.72
78064;BME280;67429;51.596;-3.264;2023-05-07T07:41:26;99600.65;;;11.66;60.53
78064;BME280;67429;51.596;-3.264;2023-05-07T07:43:52;99599.60;;;11.65;58.93
78064;BME280;67429;51.596;-3.264;2023-05-07T07:46:17;99604.40;;;12.29;57.35
78064;BME280;67429;51.596;-3.264;2023-05-07T07:48:43;99608.74;;;12.64;56.66
78064;BME280;67429;51.596;-3.264;2023-05-07T07:51:09;99607.54;;;12.30;57.59
78064;BME280;67429;51.596;-3.264;2023-05-07T07:53:34;99604.67;;;12.39;55.78
78064;BME280;67429;51.596;-3.264;2023-05-07T07:56:00;99602.64;;;12.12;57.61
78064;BME280;67429;51.596;-3.264;2023-05-07T07:58:25;99603.40;;;11.36;58.47
78064;BME280;67429;51.596;-3.264;2023-05-07T08:00:51;99605.10;;;11.09;60.29
78064;BME280;67429;51.596;-3.264;2023-05-07T08:03:16;99611.21;;;11.29;58.89
78064;BME280;67429;51.596;-3.264;2023-05-07T08:05:42;99623.34;;;11.80;58.32
78064;BME280;67429;51.596;-3.264;2023-05-07T08:08:08;99630.40;;;11.97;57.76
78064;BME280;67429;51.596;-3.264;2023-05-07T08:10:33;99630.41;;;11.43;57.09
78064;BME280;67429;51.596;-3.264;2023-05-07T08:12:58;99637.35;;;12.20;58.50
78064;BME280;67429;51.596;-3.264;2023-05-07T08:15:24;99642.72;;;12.43;57.03
78064;BME280;67429;51.596;-3.264;2023-05-07T08:17:49;99645.65;;;12.69;56.08
78064;BME280;67429;51.596;-3.264;2023-05-07T08:20:15;99646.63;;;12.53;56.82
78064;BME280;67429;51.596;-3.264;2023-05-07T08:22:41;99646.75;;;12.27;56.79
78064;BME280;67429;51.596;-3.264;2023-05-07T08:25:07;99639.88;;;11.48;58.41
78064;BME280;67429;51.596;-3.264;2023-05-07T08:27:32;99637.01;;;11.96;58.12
78064;BME280;67429;51.596;-3.264;2023-05-07T08:29:58;99637.32;;;11.99;57.31
78064;BME280;67429;51.596;-3.264;2023-05-07T08:32:23;99637.95;;;13.21;55.98
78064;BME280;67429;51.596;-3.264;2023-05-07T08:34:49;99641.51;;;12.12;57.50
78064;BME280;67429;51.596;-3.264;2023-05-07T08:37:14;99647.31;;;12.55;56.51
78064;BME280;67429;51.596;-3.264;2023-05-07T08:39:40;99647.14;;;12.86;55.54
78064;BME280;67429;51.596;-3.264;2023-05-07T08:42:07;99646.91;;;11.94;57.47
78064;BME280;67429;51.596;-3.264;2023-05-07T08:44:34;99651.38;;;12.67;54.95
78064;BME280;67429;51.596;-3.264;2023-05-07T08:46:56;99656.77;;;13.75;54.76
78064;BME280;67429;51.596;-3.264;2023-05-07T08:49:22;99655.29;;;13.97;53.24
78064;BME280;67429;51.596;-3.264;2023-05-07T08:51:48;99664.78;;;12.90;54.47
78064;BME280;67429;51.596;-3.264;2023-05-07T08:54:16;99669.38;;;13.57;53.44
78064;BME280;67429;51.596;-3.264;2023-05-07T08:56:40;99676.17;;;13.53;52.85
78064;BME280;67429;51.596;-3.264;2023-05-07T08:59:05;99675.55;;;13.73;52.95
78064;BME280;67429;51.596;-3.264;2023-05-07T09:01:30;99671.42;;;14.76;52.18
78064;BME280;67429;51.596;-3.264;2023-05-07T09:03:57;99666.12;;;13.97;51.14
78064;BME280;67429;51.596;-3.264;2023-05-07T09:06:21;99672.59;;;13.83;53.47
78064;BME280;67429;51.596;-3.264;2023-05-07T09:08:50;99669.05;;;13.79;53.53
78064;BME280;67429;51.596;-3.264;2023-05-07T09:11:13;99668.59;;;14.19;52.20
78064;BME280;67429;51.596;-3.264;2023-05-07T09:13:38;99670.26;;;14.27;51.95
78064;BME280;67429;51.596;-3.264;2023-05-07T09:16:12;99668.77;;;14.08;52.81
78064;BME280;67429;51.596;-3.264;2023-05-07T09:18:29;99670.68;;;13.89;53.27
78064;BME280;67429;51.596;-3.264;2023-05-07T09:20:55;99667.19;;;13.25;54.08
78064;BME280;67429;51.596;-3.264;2023-05-07T09:23:20;99667.31;;;13.53;52.97
78064;BME280;67429;51.596;-3.264;2023-05-07T09:25:45;99665.71;;;13.60;52.06
78064;BME280;67429;51.596;-3.264;2023-05-07T09:28:11;99667.17;;;13.54;53.09
78064;BME280;67429;51.596;-3.264;2023-05-07T09:30:37;99668.17;;;13.81;52.68
78064;BME280;67429;51.596;-3.264;2023-05-07T09:33:03;99668.41;;;14.73;51.98
78064;BME280;67429;51.596;-3.264;2023-05-07T09:35:28;99674.20;;;14.16;50.90
78064;BME280;67429;51.596;-3.264;2023-05-07T09:37:53;99681.06;;;13.65;53.30
78064;BME280;67429;51.596;-3.264;2023-05-07T09:40:22;99682.81;;;14.54;51.93
78064;BME280;67429;51.596;-3.264;2023-05-07T09:42:44;99683.09;;;14.83;50.80
78064;BME280;67429;51.596;-3.264;2023-05-07T09:45:10;99681.85;;;15.09;49.44
78064;BME280;67429;51.596;-3.264;2023-05-07T09:47:39;99681.74;;;15.04;50.04
78064;BME280;67429;51.596;-3.264;2023-05-07T09:50:04;99680.91;;;15.51;48.64
78064;BME280;67429;51.596;-3.264;2023-05-07T09:52:27;99677.75;;;15.70;48.41
78064;BME280;67429;51.596;-3.264;2023-05-07T09:54:53;99676.45;;;15.43;48.67
78064;BME280;67429;51.596;-3.264;2023-05-07T09:57:19;99680.18;;;16.25;48.48
78064;BME280;67429;51.596;-3.264;2023-05-07T09:59:43;99683.46;;;15.10;47.57
78064;BME280;67429;51.596;-3.264;2023-05-07T10:02:09;99688.81;;;15.41;47.86
78064;BME280;67429;51.596;-3.264;2023-05-07T10:04:34;99691.86;;;15.63;47.52
78064;BME280;67429;51.596;-3.264;2023-05-07T10:07:00;99701.66;;;14.92;49.50
78064;BME280;67429;51.596;-3.264;2023-05-07T10:09:26;99702.45;;;16.07;48.62
78064;BME280;67429;51.596;-3.264;2023-05-07T10:11:50;99705.03;;;14.96;49.26
78064;BME280;67429;51.596;-3.264;2023-05-07T10:14:16;99702.77;;;15.04;49.52
78064;BME280;67429;51.596;-3.264;2023-05-07T10:16:41;99694.48;;;15.56;48.53
78064;BME280;67429;51.596;-3.264;2023-05-07T10:19:08;99691.07;;;15.27;49.02
78064;BME280;67429;51.596;-3.264;2023-05-07T10:21:35;99695.84;;;15.93;47.12
78064;BME280;67429;51.596;-3.264;2023-05-07T10:24:00;99700.51;;;15.37;47.59
78064;BME280;67429;51.596;-3.264;2023-05-07T10:26:25;99702.63;;;16.41;46.44
78064;BME280;67429;51.596;-3.264;2023-05-07T10:28:55;99700.19;;;16.72;45.20
78064;BME280;67429;51.596;-3.264;2023-05-07T10:31:26;99702.97;;;16.07;45.94
78064;BME280;67429;51.596;-3.264;2023-05-07T10:33:41;99707.37;;;16.21;46.41
78064;BME280;67429;51.596;-3.264;2023-05-07T10:36:06;99710.41;;;15.19;47.92
78064;BME280;67429;51.596;-3.264;2023-05-07T10:38:31;99710.73;;;14.83;48.26
78064;BME280;67429;51.596;-3.264;2023-05-07T10:40:56;99713.35;;;15.81;46.68
78064;BME280;67429;51.596;-3.264;2023-05-07T10:43:22;99712.17;;;16.11;46.18
78064;BME280;67429;51.596;-3.264;2023-05-07T10:48:14;99716.51;;;17.36;42.04
78064;BME280;67429;51.596;-3.264;2023-05-07T10:50:39;99721.00;;;17.44;42.36
78064;BME280;67429;51.596;-3.264;2023-05-07T10:53:22;99725.44;;;17.13;43.83
78064;BME280;67429;51.596;-3.264;2023-05-07T10:55:30;99725.30;;;14.98;48.03
78064;BME280;67429;51.596;-3.264;2023-05-07T10:57:54;99728.91;;;16.53;46.95
78064;BME280;67429;51.596;-3.264;2023-05-07T11:05:20;99725.80;;;15.82;47.74
78064;BME280;67429;51.596;-3.264;2023-05-07T11:07:36;99725.35;;;15.21;48.96
78064;BME280;67429;51.596;-3.264;2023-05-07T11:10:05;99731.31;;;16.27;47.25
78064;BME280;67429;51.596;-3.264;2023-05-07T11:14:53;99739.23;;;15.64;48.36
78064;BME280;67429;51.596;-3.264;2023-05-07T11:17:18;99740.61;;;15.16;49.58
78064;BME280;67429;51.596;-3.264;2023-05-07T11:19:50;99742.19;;;15.39;49.29
78064;BME280;67429;51.596;-3.264;2023-05-07T11:24:39;99751.00;;;14.75;49.72
78064;BME280;67429;51.596;-3.264;2023-05-07T11:26:59;99754.11;;;14.75;50.35
78064;BME280;67429;51.596;-3.264;2023-05-07T11:29:25;99756.33;;;14.71;49.74
78064;BME280;67429;51.596;-3.264;2023-05-07T11:31:50;99757.98;;;15.50;48.84
78064;BME280;67429;51.596;-3.264;2023-05-07T11:34:21;99758.93;;;15.64;47.93
78064;BME280;67429;51.596;-3.264;2023-05-07T11:36:42;99756.65;;;15.78;48.14
78064;BME280;67429;51.596;-3.264;2023-05-07T11:39:05;99758.93;;;15.63;48.38
78064;BME280;67429;51.596;-3.264;2023-05-07T11:41:34;99756.29;;;14.95;49.62
78064;BME280;67429;51.596;-3.264;2023-05-07T11:43:58;99755.32;;;14.53;50.52
78064;BME280;67429;51.596;-3.264;2023-05-07T11:46:22;99759.39;;;15.97;48.54
78064;BME280;67429;51.596;-3.264;2023-05-07T11:48:48;99760.84;;;15.67;48.23
78064;BME280;67429;51.596;-3.264;2023-05-07T11:51:13;99763.98;;;16.11;48.45
78064;BME280;67429;51.596;-3.264;2023-05-07T11:53:39;99764.62;;;15.78;48.86
78064;BME280;67429;51.596;-3.264;2023-05-07T11:56:07;99763.52;;;14.79;50.59
78064;BME280;67429;51.596;-3.264;2023-05-07T11:58:29;99763.56;;;15.19;50.40
78064;BME280;67429;51.596;-3.264;2023-05-07T12:00:54;99764.45;;;15.02;50.80
78064;BME280;67429;51.596;-3.264;2023-05-07T12:03:20;99760.57;;;14.94;50.48
78064;BME280;67429;51.596;-3.264;2023-05-07T12:05:45;99763.89;;;15.29;50.78
78064;BME280;67429;51.596;-3.264;2023-05-07T12:08:13;99775.09;;;15.53;49.48
78064;BME280;67429;51.596;-3.264;2023-05-07T12:10:41;99780.66;;;15.53;49.08
78064;BME280;67429;51.596;-3.264;2023-05-07T12:13:01;99783.43;;;16.15;48.11
78064;BME280;67429;51.596;-3.264;2023-05-07T12:15:27;99783.76;;;16.08;47.98
78064;BME280;67429;51.596;-3.264;2023-05-07T12:17:52;99781.48;;;16.39;48.23
78064;BME280;67429;51.596;-3.264;2023-05-07T12:20:17;99779.54;;;16.72;46.75
78064;BME280;67429;51.596;-3.264;2023-05-07T12:22:44;99777.87;;;16.44;47.12
78064;BME280;67429;51.596;-3.264;2023-05-07T12:25:09;99780.54;;;16.62;47.06
78064;BME280;67429;51.596;-3.264;2023-05-07T12:27:37;99776.02;;;16.31;47.10
78064;BME280;67429;51.596;-3.264;2023-05-07T12:29:59;99779.95;;;17.04;47.02
78064;BME280;67429;51.596;-3.264;2023-05-07T12:32:25;99781.54;;;16.15;46.78
78064;BME280;67429;51.596;-3.264;2023-05-07T12:34:51;99785.27;;;16.02;47.68
78064;BME280;67429;51.596;-3.264;2023-05-07T12:37:16;99787.62;;;16.78;46.59
78064;BME280;67429;51.596;-3.264;2023-05-07T12:39:47;99789.02;;;15.82;47.40
78064;BME280;67429;51.596;-3.264;2023-05-07T12:42:07;99792.39;;;15.94;47.76
78064;BME280;67429;51.596;-3.264;2023-05-07T12:44:33;99791.58;;;16.49;46.45
78064;BME280;67429;51.596;-3.264;2023-05-07T12:46:58;99798.03;;;15.82;47.36
78064;BME280;67429;51.596;-3.264;2023-05-07T12:49:23;99795.70;;;16.53;46.54
78064;BME280;67429;51.596;-3.264;2023-05-07T12:51:49;99795.55;;;16.88;46.05
78064;BME280;67429;51.596;-3.264;2023-05-07T12:56:41;99791.14;;;18.12;42.49